createdAt,value
2019-01-14T12:42:55.526Z,43.38
2019-01-14T12:45:25.073Z,44.76
2019-01-14T12:47:54.499Z,44.97
2019-01-14T12:50:23.986Z,45.62
2019-01-14T12:58:09.274Z,44.18
2019-01-14T13:00:38.613Z,44.95
2019-01-14T13:03:11.047Z,44.93
2019-01-14T13:05:40.383Z,45.47
2019-01-14T13:08:09.739Z,44.65
2019-01-14T13:10:39.072Z,44.03
2019-01-14T13:13:08.515Z,43.81
2019-01-14T13:15:38.096Z,43.70
2019-01-14T13:18:07.401Z,43.64
2019-01-14T13:20:36.759Z,43.48
2019-01-14T13:23:06.210Z,43.66
2019-01-14T13:25:35.520Z,42.84
2019-01-14T13:28:04.826Z,42.61
2019-01-14T13:30:34.110Z,42.37
2019-01-14T13:33:03.387Z,42.50
2019-01-14T13:35:32.758Z,42.87
2019-01-14T13:38:02.076Z,42.68
2019-01-14T13:40:31.412Z,42.72
2019-01-14T13:43:00.858Z,42.73
2019-01-14T13:45:30.198Z,42.70
2019-01-14T13:58:15.693Z,50.77
2019-01-14T14:00:44.962Z,50.19
2019-01-14T14:03:14.235Z,53.69
2019-01-14T14:15:52.210Z,71.99
2019-01-14T14:21:58.855Z,50.58
2019-01-14T14:24:31.063Z,45.71
2019-01-14T14:27:00.393Z,44.67
2019-01-14T14:29:29.756Z,44.76
2019-01-14T14:31:59.204Z,44.50
2019-01-14T14:34:28.821Z,44.54
2019-01-14T14:36:58.694Z,44.79
2019-01-14T14:39:29.481Z,45.22
2019-01-14T14:41:58.759Z,45.55
2019-01-14T14:44:28.095Z,45.63
2019-01-14T14:46:57.380Z,45.78
2019-01-14T14:49:27.929Z,46.29
2019-01-14T14:57:47.588Z,43.90
2019-01-14T15:00:19.243Z,45.50
2019-01-14T15:02:46.480Z,45.92
2019-01-14T15:05:13.760Z,46.46
2019-01-14T15:07:40.910Z,46.18
2019-01-14T15:10:10.256Z,45.38
2019-01-14T15:12:37.338Z,45.03
2019-01-14T15:14:12.928Z,44.06
2019-01-14T15:14:34.973Z,43.91
2019-01-14T15:14:57.422Z,44.05
2019-01-14T15:15:21.549Z,43.86
2019-01-14T15:15:43.596Z,44.72
2019-01-14T15:16:05.647Z,44.20
2019-01-14T15:16:27.693Z,44.12
2019-01-14T15:17:20.679Z,43.71
2019-01-14T15:17:42.748Z,43.58
2019-01-14T15:18:04.950Z,43.90
2019-01-14T15:18:27.042Z,43.47
2019-01-14T15:18:49.089Z,44.17
2019-01-14T15:19:11.424Z,44.30
2019-01-14T15:19:33.487Z,44.06
2019-01-14T15:19:55.565Z,43.94
2019-01-14T15:20:18.430Z,44.00
2019-01-14T15:20:40.471Z,44.03
2019-01-14T15:23:34.230Z,44.44
2019-01-14T15:26:01.438Z,43.90
2019-01-14T15:28:28.551Z,44.75
2019-01-14T15:30:55.660Z,44.07
2019-01-14T15:33:22.762Z,43.78
2019-01-14T15:35:49.820Z,44.18
2019-01-14T15:38:17.034Z,43.40
2019-01-14T15:40:44.074Z,43.41
2019-01-14T15:43:11.199Z,44.09
2019-01-14T15:45:38.332Z,45.10
2019-01-14T15:48:05.402Z,45.03
2019-01-14T15:50:32.507Z,44.70
2019-01-14T15:52:59.599Z,44.73
2019-01-14T15:55:26.774Z,45.27
2019-01-14T15:57:54.203Z,46.00
2019-01-14T16:00:21.382Z,46.80
2019-01-14T16:02:48.624Z,46.48
2019-01-14T16:05:16.386Z,46.97
2019-01-14T16:07:43.605Z,47.67
2019-01-14T16:10:13.541Z,48.32
2019-01-14T16:12:40.636Z,48.02
2019-01-14T16:15:08.158Z,48.30
2019-01-14T16:17:35.269Z,48.23
2019-01-14T16:20:02.673Z,48.21
2019-01-14T16:22:29.940Z,47.95
2019-01-14T16:24:57.125Z,48.57
2019-01-14T16:27:24.202Z,48.53
2019-01-14T16:29:51.346Z,48.96
2019-01-14T16:32:18.482Z,48.66
2019-01-14T16:34:45.566Z,48.88
2019-01-14T16:37:12.760Z,48.93
2019-01-14T16:39:39.934Z,48.85
2019-01-14T16:42:07.109Z,48.23
2019-01-14T16:44:34.133Z,48.34
2019-01-14T16:47:01.591Z,47.96
2019-01-14T16:49:28.666Z,48.75
2019-01-14T16:51:55.749Z,48.45
2019-01-14T16:54:24.221Z,48.65
2019-01-14T16:56:51.414Z,48.22
2019-01-14T16:59:18.580Z,48.59
2019-01-14T17:01:45.657Z,48.48
2019-01-14T17:04:12.971Z,48.48
2019-01-14T17:06:40.055Z,48.35
2019-01-14T17:09:08.219Z,47.95
2019-01-14T17:11:35.540Z,48.80
2019-01-14T17:14:03.076Z,47.99
2019-01-14T17:16:30.285Z,47.98
2019-01-14T17:18:57.374Z,47.82
2019-01-14T17:21:24.460Z,47.71
2019-01-14T17:23:51.588Z,47.60
2019-01-14T17:26:18.827Z,47.28
2019-01-14T17:28:46.013Z,47.16
2019-01-14T17:31:13.084Z,47.05
2019-01-14T17:33:41.347Z,48.12
2019-01-14T17:36:08.480Z,48.04
2019-01-14T17:38:35.595Z,48.07
2019-01-14T17:41:02.793Z,47.41
2019-01-14T17:43:29.911Z,47.79
2019-01-14T17:47:38.563Z,55.36
2019-01-14T17:50:08.657Z,55.77
2019-01-14T17:52:35.731Z,56.46
2019-01-14T17:55:03.438Z,56.75
2019-01-14T17:57:30.720Z,56.57
2019-01-14T17:59:57.898Z,56.60
2019-01-14T18:31:35.729Z,63.82
2019-01-14T18:34:02.923Z,53.06
2019-01-14T18:36:30.002Z,67.86
2019-01-14T18:38:57.075Z,81.14
2019-01-14T18:41:24.189Z,85.99
2019-01-14T18:43:51.270Z,93.18
2019-01-14T18:46:18.382Z,97.85
2019-01-14T18:48:45.441Z,99.67
2019-01-14T18:51:12.488Z,100.00
2019-01-14T18:53:39.571Z,100.00
2019-01-14T18:56:08.053Z,100.00
2019-01-14T18:58:35.290Z,100.00
2019-01-14T19:01:39.304Z,100.00
2019-01-14T19:04:06.381Z,100.00
2019-01-14T19:06:33.530Z,100.00
2019-01-14T19:09:00.631Z,100.00
2019-01-14T19:11:29.490Z,100.00
2019-01-14T19:13:56.701Z,100.00
2019-01-14T19:16:25.767Z,100.00
2019-01-14T19:18:52.921Z,100.00
2019-01-14T19:21:20.143Z,100.00
2019-01-14T19:23:48.286Z,100.00
2019-01-14T19:26:15.392Z,100.00
2019-01-14T19:28:42.444Z,100.00
2019-01-14T19:31:09.665Z,100.00
2019-01-14T19:33:36.744Z,100.00
2019-01-14T19:36:24.079Z,100.00
2019-01-14T19:38:51.201Z,100.00
2019-01-14T19:41:57.010Z,100.00
2019-01-14T19:44:24.097Z,100.00
2019-01-14T19:46:51.168Z,100.00
2019-01-14T19:49:18.513Z,100.00
2019-01-14T19:51:45.571Z,100.00
2019-01-14T19:54:12.805Z,100.00
2019-01-14T19:56:39.944Z,100.00
2019-01-14T20:02:47.990Z,100.00
2019-01-14T20:05:15.058Z,100.00
2019-01-14T20:07:42.236Z,100.00
2019-01-14T20:10:10.960Z,100.00
2019-01-14T20:12:38.064Z,100.00
2019-01-14T20:15:07.156Z,100.00
2019-01-14T20:17:34.420Z,100.00
2019-01-14T20:20:01.703Z,100.00
2019-01-14T20:22:28.877Z,100.00
2019-01-14T20:24:56.418Z,100.00
2019-01-14T20:27:23.501Z,100.00
2019-01-14T20:29:50.736Z,100.00
2019-01-14T20:32:17.927Z,100.00
2019-01-14T20:34:45.094Z,100.00
2019-01-14T20:37:12.251Z,100.00
2019-01-14T20:39:39.730Z,100.00
2019-01-14T20:42:06.905Z,100.00
2019-01-14T20:44:33.932Z,100.00
2019-01-14T20:47:01.229Z,100.00
2019-01-14T20:49:28.279Z,100.00
2019-01-14T20:51:55.322Z,100.00
2019-01-14T20:54:22.432Z,100.00
2019-01-14T20:56:49.867Z,100.00
2019-01-14T20:59:16.908Z,100.00
2019-01-14T21:01:43.952Z,100.00
2019-01-14T21:04:11.212Z,100.00
2019-01-14T21:06:38.381Z,100.00
2019-01-14T21:09:06.508Z,100.00
2019-01-14T21:11:33.631Z,100.00
2019-01-14T21:14:00.744Z,100.00
2019-01-14T21:16:27.850Z,100.00
2019-01-14T21:18:54.917Z,100.00
2019-01-14T21:21:22.094Z,100.00
2019-01-14T21:23:49.164Z,100.00
2019-01-14T21:26:16.208Z,100.00
2019-01-14T21:28:43.546Z,100.00
2019-01-14T21:31:10.692Z,100.00
2019-01-14T21:33:37.880Z,100.00
2019-01-14T21:36:05.199Z,100.00
2019-01-14T21:39:09.425Z,100.00
2019-01-14T21:41:37.099Z,100.00
2019-01-14T21:44:04.292Z,100.00
2019-01-14T21:46:31.523Z,100.00
2019-01-14T21:48:58.655Z,100.00
2019-01-14T21:51:25.756Z,100.00
2019-01-14T21:53:52.862Z,100.00
2019-01-14T21:56:19.910Z,100.00
2019-01-14T21:58:49.308Z,100.00
2019-01-14T22:01:16.535Z,100.00
2019-01-14T22:03:43.701Z,100.00
2019-01-14T22:06:10.952Z,100.00
2019-01-14T22:08:50.506Z,100.00
2019-01-14T22:11:17.581Z,100.00
2019-01-14T22:13:44.642Z,100.00
2019-01-14T22:16:12.056Z,100.00
2019-01-14T22:18:39.197Z,100.00
2019-01-14T22:21:08.128Z,100.00
2019-01-14T22:23:36.925Z,100.00
2019-01-14T22:26:04.984Z,100.00
2019-01-14T22:28:32.168Z,100.00
2019-01-14T22:30:59.254Z,100.00
2019-01-14T22:33:26.351Z,100.00
2019-01-14T22:35:53.466Z,100.00
2019-01-14T22:38:20.565Z,100.00
2019-01-14T22:40:47.757Z,100.00
2019-01-14T22:43:14.850Z,100.00
2019-01-14T22:45:42.026Z,100.00
2019-01-14T22:48:09.225Z,100.00
2019-01-14T22:51:14.053Z,100.00
2019-01-14T22:53:41.342Z,100.00
2019-01-14T22:56:08.711Z,100.00
2019-01-14T22:59:14.947Z,100.00
2019-01-14T23:01:46.913Z,100.00
2019-01-14T23:04:13.984Z,100.00
2019-01-14T23:07:00.532Z,100.00
2019-01-14T23:09:27.572Z,100.00
2019-01-14T23:11:54.609Z,100.00
2019-01-14T23:14:21.708Z,100.00
2019-01-14T23:16:48.770Z,100.00
2019-01-14T23:19:16.233Z,100.00
2019-01-14T23:21:44.491Z,100.00
2019-01-14T23:24:11.569Z,100.00
2019-01-14T23:26:38.666Z,100.00
2019-01-14T23:29:05.776Z,100.00
2019-01-14T23:31:33.186Z,100.00
2019-01-14T23:34:00.232Z,100.00
2019-01-14T23:36:27.744Z,100.00
2019-01-14T23:38:54.795Z,100.00
2019-01-14T23:41:21.841Z,100.00
2019-01-14T23:43:48.949Z,100.00
2019-01-14T23:46:16.002Z,100.00
2019-01-14T23:48:43.205Z,100.00
2019-01-14T23:51:10.296Z,100.00
2019-01-14T23:57:18.223Z,100.00
2019-01-14T23:59:45.374Z,100.00
